• Join FlightAware (Why Join?)
  • Login
  • US Flag 
07:59AM EDT


 

Airport Tracker/Info


-or-


 

Live Flight TrackerFlight Track Log ✈ N50906 ✈ 07-Nov-2013 ✈ KSET - KUBX

Flight Track Log - Related Links

Times and Time Zones

All times are in EST time to prevent confusion due to time zone crossing. See the N50906 flight status page for this flight to view local times or setup timezone preferences in your user account.

Time Position Orientation Groundspeed Altitude Reporting Facility
EST Latitude Longitude Course Direction KTS MPH feet Rate Location/Type
02:08PM 38.8667 -90.5000 237° Southwest 99 114 2,000  Level Gateway (St. Louis) TRACON
02:09PM 38.8500 -90.5333 237° Southwest 94 108 1,800  Descending Gateway (St. Louis) TRACON
02:10PM 38.8358 -90.5486 220° Southwest 95 109 2,000 300 Climbing Kansas City Center
02:11PM 38.8161 -90.5756 227° Southwest 91 105 2,500 480 Climbing Kansas City Center
02:12PM 38.7983 -90.5889 210° Southwest 80 92 3,000 480 Climbing Kansas City Center
02:13PM 38.7811 -90.6056 217° Southwest 78 90 3,600 480 Climbing Kansas City Center
02:14PM 38.7694 -90.6272 235° Southwest 75 86 4,100 420 Climbing Kansas City Center
02:15PM 38.7572 -90.6497 235° Southwest 76 87 4,500 240 Climbing Kansas City Center
02:16PM 38.7361 -90.6803 228° Southwest 87 100 4,600  Climbing Kansas City Center
02:17PM 38.7114 -90.7033 216° Southwest 101 116 4,500 -180 Descending Kansas City Center
02:18PM 38.6867 -90.7228 212° Southwest 105 121 4,300 -60 Descending Kansas City Center
02:19PM 38.6622 -90.7400 209° Southwest 103 119 4,400  Climbing Kansas City Center
02:20PM 38.6383 -90.7569 209° Southwest 101 116 4,400  Level Kansas City Center
02:21PM 38.6058 -90.7736 202° Southwest 102 117 4,400  Level Kansas City Center
02:22PM 38.5775 -90.7831 195° South 105 121 4,500  Climbing Kansas City Center
02:23PM 38.5497 -90.7956 199° South 105 121 4,400  Descending Kansas City Center
02:24PM 38.5258 -90.8133 210° Southwest 103 119 4,500  Climbing Kansas City Center
02:25PM 38.5067 -90.8367 224° Southwest 99 114 4,500  Level Kansas City Center
02:26PM 38.4894 -90.8625 230° Southwest 95 109 4,600  Climbing Kansas City Center
02:27PM 38.4633 -90.8903 220° Southwest 101 116 4,500 -120 Descending Kansas City Center
02:28PM 38.4433 -90.9131 222° Southwest 98 113 4,400 -60 Descending Kansas City Center
02:30PM 38.4250 -90.9378 227° Southwest 97 112 4,400  Level Kansas City Center
02:31PM 38.4064 -90.9633 227° Southwest 97 112 4,400  Level Kansas City Center
02:32PM 38.3861 -90.9856 221° Southwest 97 112 4,500  Climbing Kansas City Center
02:33PM 38.3653 -91.0081 220° Southwest 97 112 4,400 -60 Descending Kansas City Center
02:34PM 38.3433 -91.0383 227° Southwest 97 112 4,400 -60 Level Kansas City Center
02:35PM 38.3267 -91.0650 231° Southwest 97 112 4,300 -60 Descending Kansas City Center
02:36PM 38.3097 -91.0911 230° Southwest 96 110 4,300  Level Kansas City Center
02:37PM 38.2914 -91.1144 225° Southwest 94 108 4,300  Level Kansas City Center
02:38PM 38.2736 -91.1403 229° Southwest 96 110 4,300  Level Kansas City Center
02:39PM 38.2569 -91.1664 231° Southwest 96 110 4,300  Level Kansas City Center
02:40PM 38.2378 -91.1983 233° Southwest 95 109 4,300  Level Kansas City Center
02:41PM 38.2192 -91.2236 227° Southwest 97 112 4,300 -60 Level Kansas City Center
02:42PM 38.1992 -91.2444 219° Southwest 94 108 4,200 -120 Descending Kansas City Center